createdAt,value
2019-02-27T00:04:07.590Z,102542.60
2019-02-27T00:09:12.453Z,102540.92
2019-02-27T00:14:16.678Z,102540.00
2019-02-27T00:19:20.915Z,102542.14
2019-02-27T00:24:29.626Z,102540.16
2019-02-27T00:29:31.127Z,102534.79
2019-02-27T00:34:35.380Z,102535.30
2019-02-27T00:39:40.002Z,102524.64
2019-02-27T00:44:44.259Z,102526.91
2019-02-27T00:49:48.470Z,102520.71
2019-02-27T00:54:52.885Z,102531.52
2019-02-27T00:59:57.115Z,102523.84
2019-02-27T01:05:01.341Z,102510.17
2019-02-27T01:10:06.479Z,102510.01
2019-02-27T01:15:11.305Z,102511.21
2019-02-27T01:20:15.690Z,102499.80
2019-02-27T01:25:22.854Z,102499.38
2019-02-27T01:30:25.893Z,102504.16
2019-02-27T01:35:30.137Z,102492.55
2019-02-27T01:40:34.403Z,102489.46
2019-02-27T01:45:38.635Z,102491.22
2019-02-27T01:50:42.863Z,102492.75
2019-02-27T01:55:47.099Z,102483.51
2019-02-27T02:00:51.326Z,102479.44
2019-02-27T02:05:58.857Z,102464.39
2019-02-27T02:11:02.111Z,102453.09
2019-02-27T02:16:46.479Z,102440.92
2019-02-27T02:22:21.566Z,102442.78
2019-02-27T02:28:18.748Z,102429.41
2019-02-27T02:34:14.942Z,102432.00
2019-02-27T02:40:10.026Z,102418.42
2019-02-27T02:45:35.642Z,102389.52
2019-02-27T02:51:29.085Z,102407.62
2019-02-27T02:57:25.575Z,102408.35
2019-02-27T03:03:13.876Z,102403.63
2019-02-27T03:08:28.654Z,102402.74
2019-02-27T03:13:54.525Z,102402.03
2019-02-27T03:19:07.304Z,102402.53
2019-02-27T03:24:20.049Z,102401.88
2019-02-27T03:30:00.547Z,102397.90
2019-02-27T03:35:31.181Z,102396.83
2019-02-27T03:41:22.842Z,102359.08
2019-02-27T03:47:02.517Z,102384.58
2019-02-27T03:52:52.196Z,102382.42
2019-02-27T03:58:17.054Z,102381.05
2019-02-27T04:03:56.059Z,102380.91
2019-02-27T04:09:01.328Z,102379.67
2019-02-27T04:14:28.671Z,102376.04
2019-02-27T04:19:38.882Z,102375.77
2019-02-27T04:24:39.188Z,102371.76
2019-02-27T04:29:43.406Z,102367.78
2019-02-27T04:34:47.654Z,102362.93
2019-02-27T04:39:51.929Z,102364.34
2019-02-27T04:44:56.175Z,102361.59
2019-02-27T04:50:00.397Z,102363.92
2019-02-27T04:55:04.924Z,102359.80
2019-02-27T05:00:09.630Z,102352.31
2019-02-27T05:05:13.873Z,102345.89
2019-02-27T05:10:18.115Z,102337.50
2019-02-27T05:15:22.361Z,102341.99
2019-02-27T05:20:28.797Z,102334.68
2019-02-27T05:25:33.225Z,102319.27
2019-02-27T05:30:37.478Z,102320.16
2019-02-27T05:35:41.725Z,102320.23
2019-02-27T05:40:45.972Z,102325.55
2019-02-27T05:45:50.195Z,102327.02
2019-02-27T05:50:54.423Z,102324.63
2019-02-27T05:55:58.661Z,102320.58
2019-02-27T06:01:04.972Z,102320.28
2019-02-27T06:06:11.568Z,102322.25
2019-02-27T06:11:27.111Z,102309.17
2019-02-27T06:16:31.793Z,102313.52
2019-02-27T06:21:36.498Z,102309.85
2019-02-27T06:26:40.846Z,102305.11
2019-02-27T06:31:45.111Z,102309.02
2019-02-27T06:36:49.351Z,102304.47
2019-02-27T06:41:53.585Z,102296.16
2019-02-27T06:46:57.882Z,102298.66
2019-02-27T06:52:02.116Z,102288.64
2019-02-27T06:57:07.671Z,102287.30
2019-02-27T07:02:12.618Z,102285.03
2019-02-27T07:07:17.775Z,102283.97
2019-02-27T07:12:22.384Z,102284.06
2019-02-27T07:17:29.183Z,102280.80
2019-02-27T07:22:32.653Z,102281.89
2019-02-27T07:27:37.015Z,102286.75
2019-02-27T07:32:41.382Z,102284.43
2019-02-27T07:37:47.981Z,102275.16
2019-02-27T07:42:51.859Z,102276.28
2019-02-27T07:47:56.055Z,102268.11
2019-02-27T07:53:00.343Z,102259.67
2019-02-27T07:58:04.593Z,102260.63
2019-02-27T08:03:09.799Z,102253.93
2019-02-27T08:08:14.969Z,102252.67
2019-02-27T08:13:19.220Z,102247.76
2019-02-27T08:18:30.171Z,102242.95
2019-02-27T08:23:29.582Z,102237.13
2019-02-27T08:28:33.816Z,102237.67
2019-02-27T08:33:38.260Z,102233.34
2019-02-27T08:38:42.484Z,102220.66
2019-02-27T08:43:46.705Z,102220.28
2019-02-27T08:48:50.949Z,102224.95
2019-02-27T08:53:58.981Z,102227.98
2019-02-27T08:59:05.002Z,102209.22
2019-02-27T09:04:11.572Z,102208.69
2019-02-27T09:09:15.035Z,102198.25
2019-02-27T09:14:19.299Z,102190.04
2019-02-27T09:19:23.575Z,102179.17
2019-02-27T09:24:27.773Z,102173.45
2019-02-27T09:29:32.002Z,102175.51
2019-02-27T09:34:36.450Z,102166.59
2019-02-27T09:39:40.727Z,102163.31
2019-02-27T09:44:45.108Z,102148.95
2019-02-27T09:49:49.350Z,102141.84
2019-02-27T09:54:54.867Z,102131.72
2019-02-27T09:59:59.216Z,102134.16
2019-02-27T10:05:03.944Z,102123.52
2019-02-27T10:10:10.428Z,102116.55
2019-02-27T10:15:14.512Z,102113.55
2019-02-27T10:20:18.879Z,102109.84
2019-02-27T10:25:23.131Z,102115.03
2019-02-27T10:30:27.378Z,102101.11
2019-02-27T10:35:31.631Z,102096.64
2019-02-27T10:40:35.922Z,102085.80
2019-02-27T10:45:42.094Z,102079.23
2019-02-27T10:50:46.130Z,102067.59
2019-02-27T10:55:50.373Z,102061.17
2019-02-27T11:00:54.604Z,102052.57
2019-02-27T11:05:59.164Z,102045.62
2019-02-27T11:11:03.399Z,102027.89
2019-02-27T11:16:07.650Z,102031.78
2019-02-27T11:21:11.894Z,102024.92
2019-02-27T11:26:16.131Z,102014.12
2019-02-27T11:31:20.517Z,102010.23
2019-02-27T11:36:24.753Z,102001.25
2019-02-27T11:41:28.991Z,102004.16
2019-02-27T11:46:35.114Z,101994.30
2019-02-27T11:51:39.249Z,101973.35
2019-02-27T11:56:43.516Z,101960.98
2019-02-27T12:01:47.780Z,101941.09
2019-02-27T12:06:52.003Z,101936.80
2019-02-27T12:11:56.272Z,101929.88
2019-02-27T12:17:00.524Z,101921.50
2019-02-27T12:22:04.808Z,101919.91
2019-02-27T12:27:10.374Z,101900.84
2019-02-27T12:32:15.015Z,101896.17
2019-02-27T12:37:28.133Z,101888.66
2019-02-27T12:42:25.249Z,101883.39
2019-02-27T12:47:29.595Z,101868.44
2019-02-27T12:52:33.831Z,101859.26
2019-02-27T12:57:38.213Z,101855.34
2019-02-27T13:02:42.581Z,101842.34
2019-02-27T13:07:46.833Z,101857.72
2019-02-27T13:12:51.929Z,101857.15
2019-02-27T13:17:58.014Z,101852.42
2019-02-27T13:23:05.119Z,101838.05
2019-02-27T13:28:08.495Z,101828.62
2019-02-27T13:33:12.731Z,101827.05
2019-02-27T13:38:18.370Z,101808.77
2019-02-27T13:43:24.383Z,101805.86
2019-02-27T13:48:28.903Z,101799.99
2019-02-27T13:53:33.146Z,101792.05
2019-02-27T13:58:37.406Z,101779.50
2019-02-27T14:03:41.688Z,101748.70
2019-02-27T14:08:45.939Z,101743.89
2019-02-27T14:13:50.174Z,101743.14
2019-02-27T14:18:54.413Z,101730.45
2019-02-27T14:23:58.647Z,101720.33
2019-02-27T14:29:04.151Z,101716.73
2019-02-27T14:34:08.493Z,101710.96
2019-02-27T14:39:14.720Z,101697.95
2019-02-27T14:44:19.014Z,101697.06
2019-02-27T14:49:23.886Z,101699.29
2019-02-27T14:54:30.082Z,101688.56
2019-02-27T14:59:34.477Z,101682.62
2019-02-27T15:04:38.764Z,101669.44
2019-02-27T15:09:47.761Z,101654.66
2019-02-27T15:14:48.993Z,101641.62
2019-02-27T15:20:04.828Z,101631.17
2019-02-27T15:25:09.447Z,101619.87
2019-02-27T15:30:16.342Z,101605.33
2019-02-27T15:35:21.871Z,101589.11
2019-02-27T15:40:29.700Z,101591.09
2019-02-27T15:45:32.924Z,101591.66
2019-02-27T15:50:37.271Z,101586.27
2019-02-27T15:55:41.592Z,101572.03
2019-02-27T16:00:45.795Z,101568.95
2019-02-27T16:05:50.048Z,101550.30
2019-02-27T16:10:55.105Z,101546.33
2019-02-27T16:15:59.636Z,101534.79
2019-02-27T16:21:03.855Z,101524.70
2019-02-27T16:26:08.229Z,101537.63
2019-02-27T16:31:12.439Z,101517.66
2019-02-27T16:36:17.390Z,101523.58
2019-02-27T16:41:27.886Z,101517.58
2019-02-27T16:46:27.653Z,101516.35
2019-02-27T16:51:34.767Z,101508.38
2019-02-27T16:56:38.575Z,101496.17
2019-02-27T17:01:42.835Z,101492.89
2019-02-27T17:06:49.207Z,101495.22
2019-02-27T17:11:53.097Z,101485.74
2019-02-27T17:16:57.446Z,101471.44
2019-02-27T17:22:01.721Z,101469.66
2019-02-27T17:27:05.972Z,101466.47
2019-02-27T17:32:10.396Z,101459.96
2019-02-27T17:37:14.850Z,101445.80
2019-02-27T17:42:19.394Z,101439.07
2019-02-27T17:47:28.554Z,101440.17
2019-02-27T17:52:29.907Z,101408.92
2019-02-27T17:57:34.371Z,101427.63
2019-02-27T18:02:38.618Z,101419.63
2019-02-27T18:07:43.494Z,101419.39
2019-02-27T18:12:47.759Z,101415.19
2019-02-27T18:17:52.139Z,101408.34
2019-02-27T18:22:56.331Z,101403.98
2019-02-27T18:28:00.591Z,101390.23
2019-02-27T18:33:04.817Z,101386.28
2019-02-27T18:38:09.063Z,101377.28
2019-02-27T18:43:13.311Z,101365.19
2019-02-27T18:48:17.545Z,101350.18
2019-02-27T18:53:21.794Z,101350.25
2019-02-27T18:58:26.053Z,101332.47
2019-02-27T19:03:30.309Z,101327.23
2019-02-27T19:08:34.551Z,101313.48
2019-02-27T19:13:38.820Z,101311.20
2019-02-27T19:18:43.054Z,101306.72
2019-02-27T19:23:49.607Z,101296.55
2019-02-27T19:28:53.411Z,101281.33
2019-02-27T19:33:57.653Z,101276.49
2019-02-27T19:39:01.929Z,101259.66
2019-02-27T19:44:06.206Z,101238.78
2019-02-27T19:49:10.432Z,101242.05
2019-02-27T19:54:15.887Z,101227.66
2019-02-27T19:59:24.652Z,101223.32
2019-02-27T20:04:26.740Z,101206.02
2019-02-27T20:09:31.053Z,101196.26
2019-02-27T20:14:36.717Z,101187.92
2019-02-27T20:19:41.496Z,101184.02
2019-02-27T20:24:45.879Z,101181.89
2019-02-27T20:29:50.167Z,101165.23
2019-02-27T20:34:54.429Z,101155.06
2019-02-27T20:39:59.482Z,101149.76
2019-02-27T20:45:04.167Z,101141.36
2019-02-27T20:50:11.889Z,101130.39
2019-02-27T20:55:16.439Z,101114.06
2019-02-27T21:00:21.353Z,101114.28
2019-02-27T21:05:26.297Z,101095.50
2019-02-27T21:10:30.621Z,101088.75
2019-02-27T21:15:35.072Z,101079.39
2019-02-27T21:20:42.247Z,101065.11
2019-02-27T21:25:50.687Z,101056.98
2019-02-27T21:30:55.881Z,101045.27
2019-02-27T21:36:03.425Z,101038.42
2019-02-27T21:41:11.478Z,101031.46
2019-02-27T21:46:13.041Z,101023.30
2019-02-27T21:51:17.454Z,101015.28
2019-02-27T21:56:21.709Z,101008.70
2019-02-27T22:01:26.477Z,101000.61
2019-02-27T22:06:31.046Z,100991.99
2019-02-27T22:11:35.275Z,100977.50
2019-02-27T22:16:40.886Z,100979.94
2019-02-27T22:21:45.326Z,100971.70
2019-02-27T22:26:50.876Z,100965.66
2019-02-27T22:31:59.595Z,100959.46
2019-02-27T22:37:04.821Z,100950.59
2019-02-27T22:42:14.485Z,100951.11
2019-02-27T22:47:21.151Z,100951.51
2019-02-27T22:52:22.276Z,100952.56
2019-02-27T22:57:30.515Z,100941.38
2019-02-27T23:02:36.065Z,100931.61
2019-02-27T23:07:40.926Z,100919.86
2019-02-27T23:12:45.828Z,100901.50
2019-02-27T23:17:50.067Z,100887.92
2019-02-27T23:22:54.412Z,100873.77
2019-02-27T23:28:00.750Z,100862.25
2019-02-27T23:33:04.881Z,100851.09
2019-02-27T23:38:09.300Z,100844.27
2019-02-27T23:43:13.534Z,100838.66
2019-02-27T23:48:17.754Z,100830.80
2019-02-27T23:53:24.449Z,100823.59
2019-02-27T23:58:29.543Z,100820.42
